sensor_id;sensor_type;location;lat;lon;timestamp;temperature;humidity
54796;DHT22;40693;43.884;20.340;2022-09-16T00:00:14;665.80;2124.80
54796;DHT22;40693;43.884;20.340;2022-09-16T00:02:40;665.60;2201.60
54796;DHT22;40693;43.884;20.340;2022-09-16T00:05:07;640.90;2227.20
54796;DHT22;40693;43.884;20.340;2022-09-16T00:07:33;640.60;2278.40
54796;DHT22;40693;43.884;20.340;2022-09-16T00:09:59;640.50;2329.60
54796;DHT22;40693;43.884;20.340;2022-09-16T00:12:25;640.40;2406.40
54796;DHT22;40693;43.884;20.340;2022-09-16T00:14:52;640.20;2432.00
54796;DHT22;40693;43.884;20.340;2022-09-16T00:17:18;615.30;2432.00
54796;DHT22;40693;43.884;20.340;2022-09-16T00:19:44;615.30;2432.00
54796;DHT22;40693;43.884;20.340;2022-09-16T00:22:10;615.10;2432.00
54796;DHT22;40693;43.884;20.340;2022-09-16T00:24:35;615.10;2432.00
54796;DHT22;40693;43.884;20.340;2022-09-16T00:27:02;614.90;2432.00
54796;DHT22;40693;43.884;20.340;2022-09-16T00:29:28;614.90;2432.00
54796;DHT22;40693;43.884;20.340;2022-09-16T00:31:54;614.80;2432.00
54796;DHT22;40693;43.884;20.340;2022-09-16T00:34:20;614.80;2432.00
54796;DHT22;40693;43.884;20.340;2022-09-16T00:36:46;614.80;2432.00
54796;DHT22;40693;43.884;20.340;2022-09-16T00:39:11;614.70;2432.00
54796;DHT22;40693;43.884;20.340;2022-09-16T00:41:37;614.60;2432.00
54796;DHT22;40693;43.884;20.340;2022-09-16T00:44:06;614.60;2432.00
54796;DHT22;40693;43.884;20.340;2022-09-16T00:46:41;614.50;2432.00
54796;DHT22;40693;43.884;20.340;2022-09-16T00:49:17;614.50;2432.00
54796;DHT22;40693;43.884;20.340;2022-09-16T00:51:47;614.40;2432.00
54796;DHT22;40693;43.884;20.340;2022-09-16T00:54:15;614.40;2432.00
54796;DHT22;40693;43.884;20.340;2022-09-16T00:56:46;589.70;2432.00
54796;DHT22;40693;43.884;20.340;2022-09-16T00:59:23;589.60;2432.00
54796;DHT22;40693;43.884;20.340;2022-09-16T01:01:52;589.50;2432.00
54796;DHT22;40693;43.884;20.340;2022-09-16T01:04:25;589.60;2432.00
54796;DHT22;40693;43.884;20.340;2022-09-16T01:06:52;589.60;2432.00
54796;DHT22;40693;43.884;20.340;2022-09-16T01:09:21;589.60;2432.00
54796;DHT22;40693;43.884;20.340;2022-09-16T01:11:47;589.60;2432.00
54796;DHT22;40693;43.884;20.340;2022-09-16T01:14:14;589.50;2432.00
54796;DHT22;40693;43.884;20.340;2022-09-16T01:17:05;589.50;2432.00
54796;DHT22;40693;43.884;20.340;2022-09-16T01:22:32;589.40;2432.00
54796;DHT22;40693;43.884;20.340;2022-09-16T01:28:05;589.30;2432.00
54796;DHT22;40693;43.884;20.340;2022-09-16T01:31:07;589.30;2432.00
54796;DHT22;40693;43.884;20.340;2022-09-16T01:39:48;589.20;2432.00
54796;DHT22;40693;43.884;20.340;2022-09-16T01:42:49;589.20;2432.00
54796;DHT22;40693;43.884;20.340;2022-09-16T01:45:27;589.20;2432.00
54796;DHT22;40693;43.884;20.340;2022-09-16T01:48:20;589.20;2432.00
54796;DHT22;40693;43.884;20.340;2022-09-16T01:50:59;589.20;2432.00
54796;DHT22;40693;43.884;20.340;2022-09-16T01:53:38;589.20;2432.00
54796;DHT22;40693;43.884;20.340;2022-09-16T01:56:17;589.20;2432.00
54796;DHT22;40693;43.884;20.340;2022-09-16T01:59:09;589.20;2432.00
54796;DHT22;40693;43.884;20.340;2022-09-16T02:04:21;588.90;2432.00
54796;DHT22;40693;43.884;20.340;2022-09-16T02:06:49;588.90;2432.00
54796;DHT22;40693;43.884;20.340;2022-09-16T02:09:20;588.90;2432.00
54796;DHT22;40693;43.884;20.340;2022-09-16T02:11:49;588.90;2432.00
54796;DHT22;40693;43.884;20.340;2022-09-16T02:14:26;589.00;2432.00
54796;DHT22;40693;43.884;20.340;2022-09-16T02:17:10;589.00;2432.00
54796;DHT22;40693;43.884;20.340;2022-09-16T02:22:14;588.90;2432.00
54796;DHT22;40693;43.884;20.340;2022-09-16T02:24:42;588.90;2432.00
54796;DHT22;40693;43.884;20.340;2022-09-16T02:27:14;588.90;2432.00
54796;DHT22;40693;43.884;20.340;2022-09-16T02:29:47;588.90;2432.00
54796;DHT22;40693;43.884;20.340;2022-09-16T02:32:15;588.80;2432.00
54796;DHT22;40693;43.884;20.340;2022-09-16T02:34:44;564.10;2432.00
54796;DHT22;40693;43.884;20.340;2022-09-16T02:37:15;564.10;2432.00
54796;DHT22;40693;43.884;20.340;2022-09-16T02:39:45;564.10;2432.00
54796;DHT22;40693;43.884;20.340;2022-09-16T02:42:12;564.10;2432.00
54796;DHT22;40693;43.884;20.340;2022-09-16T02:44:38;564.10;2432.00
54796;DHT22;40693;43.884;20.340;2022-09-16T02:50:14;564.00;2432.00
54796;DHT22;40693;43.884;20.340;2022-09-16T02:52:45;564.00;2432.00
54796;DHT22;40693;43.884;20.340;2022-09-16T02:58:14;563.90;2432.00
54796;DHT22;40693;43.884;20.340;2022-09-16T03:00:46;563.90;2432.00
54796;DHT22;40693;43.884;20.340;2022-09-16T03:03:13;563.90;2432.00
54796;DHT22;40693;43.884;20.340;2022-09-16T03:08:33;563.80;2432.00
54796;DHT22;40693;43.884;20.340;2022-09-16T03:11:07;563.80;2432.00
54796;DHT22;40693;43.884;20.340;2022-09-16T03:13:52;563.80;2432.00
54796;DHT22;40693;43.884;20.340;2022-09-16T03:25:12;563.60;2432.00
54796;DHT22;40693;43.884;20.340;2022-09-16T03:27:50;563.50;2432.00
54796;DHT22;40693;43.884;20.340;2022-09-16T03:30:17;563.40;2432.00
54796;DHT22;40693;43.884;20.340;2022-09-16T03:32:53;563.40;2432.00
54796;DHT22;40693;43.884;20.340;2022-09-16T03:35:30;563.30;2432.00
54796;DHT22;40693;43.884;20.340;2022-09-16T03:37:59;563.30;2432.00
54796;DHT22;40693;43.884;20.340;2022-09-16T03:40:27;563.20;2432.00
54796;DHT22;40693;43.884;20.340;2022-09-16T03:42:54;563.20;2432.00
54796;DHT22;40693;43.884;20.340;2022-09-16T03:45:22;563.20;2432.00
54796;DHT22;40693;43.884;20.340;2022-09-16T03:47:50;563.20;2432.00
54796;DHT22;40693;43.884;20.340;2022-09-16T03:50:17;538.30;2406.40
54796;DHT22;40693;43.884;20.340;2022-09-16T03:52:43;538.50;2406.40
54796;DHT22;40693;43.884;20.340;2022-09-16T03:55:09;538.50;2406.40
54796;DHT22;40693;43.884;20.340;2022-09-16T03:57:35;538.50;2406.40
54796;DHT22;40693;43.884;20.340;2022-09-16T04:00:02;538.50;2406.40
54796;DHT22;40693;43.884;20.340;2022-09-16T04:02:29;538.40;2406.40
54796;DHT22;40693;43.884;20.340;2022-09-16T04:04:54;538.30;2406.40
54796;DHT22;40693;43.884;20.340;2022-09-16T04:07:20;538.30;2406.40
54796;DHT22;40693;43.884;20.340;2022-09-16T04:09:46;538.30;2406.40
54796;DHT22;40693;43.884;20.340;2022-09-16T04:12:11;538.30;2406.40
54796;DHT22;40693;43.884;20.340;2022-09-16T04:14:38;538.30;2406.40
54796;DHT22;40693;43.884;20.340;2022-09-16T04:17:03;538.20;2406.40
54796;DHT22;40693;43.884;20.340;2022-09-16T04:19:29;538.20;2406.40
54796;DHT22;40693;43.884;20.340;2022-09-16T04:21:55;538.10;2406.40
54796;DHT22;40693;43.884;20.340;2022-09-16T04:24:21;538.10;2406.40
54796;DHT22;40693;43.884;20.340;2022-09-16T04:26:47;538.10;2406.40
54796;DHT22;40693;43.884;20.340;2022-09-16T04:29:13;538.20;2406.40
54796;DHT22;40693;43.884;20.340;2022-09-16T04:31:39;538.20;2406.40
54796;DHT22;40693;43.884;20.340;2022-09-16T04:34:04;538.20;2406.40
54796;DHT22;40693;43.884;20.340;2022-09-16T04:36:31;538.20;2406.40
54796;DHT22;40693;43.884;20.340;2022-09-16T04:38:57;538.20;2406.40
54796;DHT22;40693;43.884;20.340;2022-09-16T04:41:25;538.20;2406.40
54796;DHT22;40693;43.884;20.340;2022-09-16T04:43:58;538.30;2406.40
54796;DHT22;40693;43.884;20.340;2022-09-16T04:46:26;538.20;2406.40
54796;DHT22;40693;43.884;20.340;2022-09-16T04:48:53;538.20;2406.40
54796;DHT22;40693;43.884;20.340;2022-09-16T04:51:20;538.20;2406.40
54796;DHT22;40693;43.884;20.340;2022-09-16T04:53:47;538.20;2406.40
54796;DHT22;40693;43.884;20.340;2022-09-16T04:56:18;538.10;2406.40
54796;DHT22;40693;43.884;20.340;2022-09-16T04:58:46;538.00;2406.40
54796;DHT22;40693;43.884;20.340;2022-09-16T05:01:15;537.90;2406.40
54796;DHT22;40693;43.884;20.340;2022-09-16T05:03:43;537.90;2406.40
54796;DHT22;40693;43.884;20.340;2022-09-16T05:06:14;537.90;2406.40
54796;DHT22;40693;43.884;20.340;2022-09-16T05:08:41;538.00;2406.40
54796;DHT22;40693;43.884;20.340;2022-09-16T05:11:18;538.00;2406.40
54796;DHT22;40693;43.884;20.340;2022-09-16T05:13:45;538.10;2406.40
54796;DHT22;40693;43.884;20.340;2022-09-16T05:16:16;538.20;2406.40
54796;DHT22;40693;43.884;20.340;2022-09-16T05:18:44;538.30;2406.40
54796;DHT22;40693;43.884;20.340;2022-09-16T05:21:13;538.30;2406.40
54796;DHT22;40693;43.884;20.340;2022-09-16T05:23:39;538.50;2406.40
54796;DHT22;40693;43.884;20.340;2022-09-16T05:26:11;538.50;2406.40
54796;DHT22;40693;43.884;20.340;2022-09-16T05:28:37;538.50;2406.40
54796;DHT22;40693;43.884;20.340;2022-09-16T05:33:38;563.20;2432.00
54796;DHT22;40693;43.884;20.340;2022-09-16T05:36:09;563.20;2432.00
54796;DHT22;40693;43.884;20.340;2022-09-16T05:38:35;563.20;2432.00
54796;DHT22;40693;43.884;20.340;2022-09-16T05:41:02;563.20;2432.00
54796;DHT22;40693;43.884;20.340;2022-09-16T05:43:28;563.50;2432.00
54796;DHT22;40693;43.884;20.340;2022-09-16T05:45:55;563.30;2432.00
54796;DHT22;40693;43.884;20.340;2022-09-16T05:48:22;563.30;2432.00
54796;DHT22;40693;43.884;20.340;2022-09-16T05:50:59;563.30;2432.00
54796;DHT22;40693;43.884;20.340;2022-09-16T05:53:26;563.30;2432.00
54796;DHT22;40693;43.884;20.340;2022-09-16T05:56:04;563.40;2432.00
54796;DHT22;40693;43.884;20.340;2022-09-16T05:58:31;563.40;2432.00
54796;DHT22;40693;43.884;20.340;2022-09-16T06:00:58;563.40;2432.00
54796;DHT22;40693;43.884;20.340;2022-09-16T06:03:25;563.40;2432.00
54796;DHT22;40693;43.884;20.340;2022-09-16T06:05:52;563.40;2432.00
54796;DHT22;40693;43.884;20.340;2022-09-16T06:08:18;563.40;2432.00
54796;DHT22;40693;43.884;20.340;2022-09-16T06:10:43;563.40;2432.00
54796;DHT22;40693;43.884;20.340;2022-09-16T06:13:09;563.40;2432.00
54796;DHT22;40693;43.884;20.340;2022-09-16T06:15:35;563.50;2432.00
54796;DHT22;40693;43.884;20.340;2022-09-16T06:18:01;563.50;2432.00
54796;DHT22;40693;43.884;20.340;2022-09-16T06:20:27;563.50;2432.00
54796;DHT22;40693;43.884;20.340;2022-09-16T06:22:53;563.50;2432.00
54796;DHT22;40693;43.884;20.340;2022-09-16T06:25:18;563.50;2432.00
54796;DHT22;40693;43.884;20.340;2022-09-16T06:27:44;563.60;2432.00
54796;DHT22;40693;43.884;20.340;2022-09-16T06:30:10;563.60;2432.00
54796;DHT22;40693;43.884;20.340;2022-09-16T06:32:36;563.60;2432.00
54796;DHT22;40693;43.884;20.340;2022-09-16T06:35:02;563.60;2432.00
54796;DHT22;40693;43.884;20.340;2022-09-16T06:37:28;563.70;2432.00
54796;DHT22;40693;43.884;20.340;2022-09-16T06:39:54;563.80;2432.00
54796;DHT22;40693;43.884;20.340;2022-09-16T06:42:20;563.80;2432.00
54796;DHT22;40693;43.884;20.340;2022-09-16T06:44:45;563.80;2432.00
54796;DHT22;40693;43.884;20.340;2022-09-16T06:47:11;563.90;2432.00
54796;DHT22;40693;43.884;20.340;2022-09-16T06:49:37;564.00;2432.00
54796;DHT22;40693;43.884;20.340;2022-09-16T06:52:02;564.10;2432.00
54796;DHT22;40693;43.884;20.340;2022-09-16T06:54:28;564.10;2432.00
54796;DHT22;40693;43.884;20.340;2022-09-16T06:56:54;588.80;2432.00
54796;DHT22;40693;43.884;20.340;2022-09-16T06:59:20;588.80;2432.00
54796;DHT22;40693;43.884;20.340;2022-09-16T07:01:45;589.00;2432.00
54796;DHT22;40693;43.884;20.340;2022-09-16T07:04:11;589.00;2432.00
54796;DHT22;40693;43.884;20.340;2022-09-16T07:06:40;589.10;2432.00
54796;DHT22;40693;43.884;20.340;2022-09-16T07:09:06;589.20;2432.00
54796;DHT22;40693;43.884;20.340;2022-09-16T07:11:32;589.30;2432.00
54796;DHT22;40693;43.884;20.340;2022-09-16T07:13:58;589.30;2432.00
54796;DHT22;40693;43.884;20.340;2022-09-16T07:16:25;589.40;2432.00
54796;DHT22;40693;43.884;20.340;2022-09-16T07:18:56;589.50;2432.00
54796;DHT22;40693;43.884;20.340;2022-09-16T07:21:25;589.70;2432.00
54796;DHT22;40693;43.884;20.340;2022-09-16T07:23:57;614.40;2432.00
54796;DHT22;40693;43.884;20.340;2022-09-16T07:26:29;614.50;2432.00
54796;DHT22;40693;43.884;20.340;2022-09-16T07:28:58;614.60;2432.00
54796;DHT22;40693;43.884;20.340;2022-09-16T07:31:28;614.80;2432.00
54796;DHT22;40693;43.884;20.340;2022-09-16T07:33:56;614.80;2432.00
54796;DHT22;40693;43.884;20.340;2022-09-16T07:36:26;614.90;2432.00
54796;DHT22;40693;43.884;20.340;2022-09-16T07:38:54;615.00;2432.00
54796;DHT22;40693;43.884;20.340;2022-09-16T07:41:32;615.10;2432.00
54796;DHT22;40693;43.884;20.340;2022-09-16T07:44:00;615.30;2432.00
54796;DHT22;40693;43.884;20.340;2022-09-16T07:46:30;615.30;2432.00
54796;DHT22;40693;43.884;20.340;2022-09-16T07:48:57;640.00;2432.00
54796;DHT22;40693;43.884;20.340;2022-09-16T07:51:24;640.10;2432.00
54796;DHT22;40693;43.884;20.340;2022-09-16T07:54:04;640.10;2432.00
54796;DHT22;40693;43.884;20.340;2022-09-16T07:56:33;640.30;2432.00
54796;DHT22;40693;43.884;20.340;2022-09-16T07:59:00;640.40;2432.00
54796;DHT22;40693;43.884;20.340;2022-09-16T08:01:26;640.60;2432.00
54796;DHT22;40693;43.884;20.340;2022-09-16T08:03:52;640.70;2432.00
54796;DHT22;40693;43.884;20.340;2022-09-16T08:06:25;640.80;2432.00
54796;DHT22;40693;43.884;20.340;2022-09-16T08:08:53;640.90;2432.00
54796;DHT22;40693;43.884;20.340;2022-09-16T08:11:19;665.60;2432.00
54796;DHT22;40693;43.884;20.340;2022-09-16T08:13:45;665.70;2432.00
54796;DHT22;40693;43.884;20.340;2022-09-16T08:16:13;665.70;2432.00
54796;DHT22;40693;43.884;20.340;2022-09-16T08:18:40;665.70;2432.00
54796;DHT22;40693;43.884;20.340;2022-09-16T08:21:39;665.70;2432.00
54796;DHT22;40693;43.884;20.340;2022-09-16T08:23:58;665.80;2432.00
54796;DHT22;40693;43.884;20.340;2022-09-16T08:26:24;665.80;2432.00
54796;DHT22;40693;43.884;20.340;2022-09-16T08:28:50;665.80;2432.00
54796;DHT22;40693;43.884;20.340;2022-09-16T08:31:17;665.80;2432.00
54796;DHT22;40693;43.884;20.340;2022-09-16T08:33:44;665.90;2432.00
54796;DHT22;40693;43.884;20.340;2022-09-16T08:36:21;665.80;2432.00
54796;DHT22;40693;43.884;20.340;2022-09-16T08:38:50;665.80;2432.00
54796;DHT22;40693;43.884;20.340;2022-09-16T08:44:26;666.00;2432.00
54796;DHT22;40693;43.884;20.340;2022-09-16T08:47:03;666.00;2432.00
54796;DHT22;40693;43.884;20.340;2022-09-16T08:49:43;666.10;2432.00
54796;DHT22;40693;43.884;20.340;2022-09-16T08:52:30;666.20;2432.00
54796;DHT22;40693;43.884;20.340;2022-09-16T08:55:02;666.30;2432.00
54796;DHT22;40693;43.884;20.340;2022-09-16T08:57:34;666.30;2432.00
54796;DHT22;40693;43.884;20.340;2022-09-16T09:00:14;666.40;2432.00
54796;DHT22;40693;43.884;20.340;2022-09-16T09:02:57;666.40;2432.00
54796;DHT22;40693;43.884;20.340;2022-09-16T09:11:01;691.20;2432.00
54796;DHT22;40693;43.884;20.340;2022-09-16T09:16:37;691.30;2432.00
54796;DHT22;40693;43.884;20.340;2022-09-16T09:19:33;691.30;2432.00
54796;DHT22;40693;43.884;20.340;2022-09-16T09:27:23;691.50;2432.00
54796;DHT22;40693;43.884;20.340;2022-09-16T09:30:13;691.70;2432.00
54796;DHT22;40693;43.884;20.340;2022-09-16T09:33:11;691.70;2432.00
54796;DHT22;40693;43.884;20.340;2022-09-16T09:40:53;691.60;2432.00
54796;DHT22;40693;43.884;20.340;2022-09-16T09:43:48;691.60;2432.00
54796;DHT22;40693;43.884;20.340;2022-09-16T09:46:29;691.70;2432.00
54796;DHT22;40693;43.884;20.340;2022-09-16T09:49:11;691.60;2432.00
54796;DHT22;40693;43.884;20.340;2022-09-16T09:54:54;691.60;2432.00
54796;DHT22;40693;43.884;20.340;2022-09-16T09:57:31;691.60;2432.00
54796;DHT22;40693;43.884;20.340;2022-09-16T10:00:02;691.70;2432.00
54796;DHT22;40693;43.884;20.340;2022-09-16T10:02:30;691.70;2432.00
54796;DHT22;40693;43.884;20.340;2022-09-16T10:04:56;691.90;2432.00
54796;DHT22;40693;43.884;20.340;2022-09-16T10:07:23;691.90;2432.00
54796;DHT22;40693;43.884;20.340;2022-09-16T10:10:00;716.80;2432.00
54796;DHT22;40693;43.884;20.340;2022-09-16T10:12:32;717.00;2432.00
54796;DHT22;40693;43.884;20.340;2022-09-16T10:14:58;717.20;2432.00
54796;DHT22;40693;43.884;20.340;2022-09-16T10:17:26;717.50;2432.00
54796;DHT22;40693;43.884;20.340;2022-09-16T10:20:02;717.60;2432.00
54796;DHT22;40693;43.884;20.340;2022-09-16T10:22:35;742.40;2432.00
54796;DHT22;40693;43.884;20.340;2022-09-16T10:25:16;742.60;2432.00
54796;DHT22;40693;43.884;20.340;2022-09-16T10:27:54;742.70;2432.00
54796;DHT22;40693;43.884;20.340;2022-09-16T10:30:20;742.60;2432.00
54796;DHT22;40693;43.884;20.340;2022-09-16T10:35:24;742.70;2432.00
54796;DHT22;40693;43.884;20.340;2022-09-16T10:37:56;742.80;2432.00
54796;DHT22;40693;43.884;20.340;2022-09-16T10:40:23;742.90;2432.00
54796;DHT22;40693;43.884;20.340;2022-09-16T10:42:55;742.80;2432.00
54796;DHT22;40693;43.884;20.340;2022-09-16T10:45:27;743.00;2432.00
54796;DHT22;40693;43.884;20.340;2022-09-16T10:47:57;743.00;2432.00
54796;DHT22;40693;43.884;20.340;2022-09-16T10:50:23;743.00;2432.00
54796;DHT22;40693;43.884;20.340;2022-09-16T10:52:50;743.00;2432.00
54796;DHT22;40693;43.884;20.340;2022-09-16T10:57:45;743.10;2432.00
54796;DHT22;40693;43.884;20.340;2022-09-16T11:35:58;717.60;2432.00
54796;DHT22;40693;43.884;20.340;2022-09-16T11:49:40;717.10;2432.00
54796;DHT22;40693;43.884;20.340;2022-09-16T11:52:19;717.00;2432.00
54796;DHT22;40693;43.884;20.340;2022-09-16T11:54:58;716.90;2432.00
54796;DHT22;40693;43.884;20.340;2022-09-16T11:57:34;716.90;2432.00
54796;DHT22;40693;43.884;20.340;2022-09-16T12:00:10;716.90;2432.00
54796;DHT22;40693;43.884;20.340;2022-09-16T12:02:54;716.90;2432.00
54796;DHT22;40693;43.884;20.340;2022-09-16T12:05:40;716.90;2432.00
54796;DHT22;40693;43.884;20.340;2022-09-16T12:08:22;716.90;2432.00
54796;DHT22;40693;43.884;20.340;2022-09-16T12:14:23;717.00;2432.00
54796;DHT22;40693;43.884;20.340;2022-09-16T12:19:44;716.90;2432.00
54796;DHT22;40693;43.884;20.340;2022-09-16T12:25:06;716.80;2432.00
54796;DHT22;40693;43.884;20.340;2022-09-16T12:30:35;716.90;2432.00
54796;DHT22;40693;43.884;20.340;2022-09-16T12:35:55;716.80;2432.00
54796;DHT22;40693;43.884;20.340;2022-09-16T12:38:22;716.80;2432.00
54796;DHT22;40693;43.884;20.340;2022-09-16T13:02:41;716.80;2432.00
54796;DHT22;40693;43.884;20.340;2022-09-16T13:05:27;716.80;2432.00
54796;DHT22;40693;43.884;20.340;2022-09-16T13:07:56;716.80;2432.00
54796;DHT22;40693;43.884;20.340;2022-09-16T13:13:00;717.10;2432.00
54796;DHT22;40693;43.884;20.340;2022-09-16T13:15:35;717.20;2432.00
54796;DHT22;40693;43.884;20.340;2022-09-16T13:20:49;717.50;2432.00
54796;DHT22;40693;43.884;20.340;2022-09-16T13:23:22;717.60;2432.00
54796;DHT22;40693;43.884;20.340;2022-09-16T13:26:00;742.40;2432.00
54796;DHT22;40693;43.884;20.340;2022-09-16T13:28:38;742.60;2432.00
54796;DHT22;40693;43.884;20.340;2022-09-16T13:33:46;743.10;2432.00
54796;DHT22;40693;43.884;20.340;2022-09-16T13:38:49;743.20;2432.00
54796;DHT22;40693;43.884;20.340;2022-09-16T13:43:55;768.10;2432.00
54796;DHT22;40693;43.884;20.340;2022-09-16T13:46:33;768.10;2432.00
54796;DHT22;40693;43.884;20.340;2022-09-16T13:51:29;768.10;2432.00
54796;DHT22;40693;43.884;20.340;2022-09-16T13:53:55;768.20;2432.00
54796;DHT22;40693;43.884;20.340;2022-09-16T13:59:44;768.40;2406.40
54796;DHT22;40693;43.884;20.340;2022-09-16T14:11:21;768.50;2380.80
54796;DHT22;40693;43.884;20.340;2022-09-16T14:13:54;768.50;2355.20
54796;DHT22;40693;43.884;20.340;2022-09-16T14:16:23;768.40;2304.00
54796;DHT22;40693;43.884;20.340;2022-09-16T14:21:29;768.40;2304.00
54796;DHT22;40693;43.884;20.340;2022-09-16T14:23:54;768.60;2355.20
54796;DHT22;40693;43.884;20.340;2022-09-16T14:26:31;768.70;2329.60
54796;DHT22;40693;43.884;20.340;2022-09-16T14:29:03;768.90;2252.80
54796;DHT22;40693;43.884;20.340;2022-09-16T14:31:31;793.70;2252.80
54796;DHT22;40693;43.884;20.340;2022-09-16T14:34:04;793.70;2099.20
54796;DHT22;40693;43.884;20.340;2022-09-16T14:36:34;793.90;1971.20
54796;DHT22;40693;43.884;20.340;2022-09-16T14:39:15;794.10;1945.60
54796;DHT22;40693;43.884;20.340;2022-09-16T14:41:58;794.10;1868.80
54796;DHT22;40693;43.884;20.340;2022-09-16T14:44:38;794.10;1868.80
54796;DHT22;40693;43.884;20.340;2022-09-16T14:49:40;794.00;1664.00
54796;DHT22;40693;43.884;20.340;2022-09-16T14:52:21;793.80;1638.40
54796;DHT22;40693;43.884;20.340;2022-09-16T14:54:49;793.60;1638.40
54796;DHT22;40693;43.884;20.340;2022-09-16T14:57:23;768.70;1612.80
54796;DHT22;40693;43.884;20.340;2022-09-16T14:59:51;768.40;1561.60
54796;DHT22;40693;43.884;20.340;2022-09-16T15:02:24;768.10;1612.80
54796;DHT22;40693;43.884;20.340;2022-09-16T15:05:42;768.00;1587.20
54796;DHT22;40693;43.884;20.340;2022-09-16T15:07:50;743.20;1612.80
54796;DHT22;40693;43.884;20.340;2022-09-16T15:13:00;743.10;1664.00
54796;DHT22;40693;43.884;20.340;2022-09-16T15:15:33;742.90;1664.00
54796;DHT22;40693;43.884;20.340;2022-09-16T15:18:01;742.90;1689.60
54796;DHT22;40693;43.884;20.340;2022-09-16T15:20:33;742.90;1689.60
54796;DHT22;40693;43.884;20.340;2022-09-16T15:23:02;742.90;1638.40
54796;DHT22;40693;43.884;20.340;2022-09-16T15:25:30;742.90;1664.00
54796;DHT22;40693;43.884;20.340;2022-09-16T15:28:16;742.50;1689.60
54796;DHT22;40693;43.884;20.340;2022-09-16T15:30:50;743.00;1664.00
54796;DHT22;40693;43.884;20.340;2022-09-16T15:35:52;743.00;1664.00
54796;DHT22;40693;43.884;20.340;2022-09-16T15:38:21;743.00;1664.00
54796;DHT22;40693;43.884;20.340;2022-09-16T15:41:11;743.00;1664.00
54796;DHT22;40693;43.884;20.340;2022-09-16T15:43:41;743.00;1664.00
54796;DHT22;40693;43.884;20.340;2022-09-16T15:46:16;743.00;1664.00
54796;DHT22;40693;43.884;20.340;2022-09-16T15:48:51;743.00;1664.00
54796;DHT22;40693;43.884;20.340;2022-09-16T15:51:36;742.90;1638.40
54796;DHT22;40693;43.884;20.340;2022-09-16T15:54:07;742.90;1638.40
54796;DHT22;40693;43.884;20.340;2022-09-16T15:56:47;742.80;1664.00
54796;DHT22;40693;43.884;20.340;2022-09-16T15:59:41;742.70;1638.40
54796;DHT22;40693;43.884;20.340;2022-09-16T16:02:37;742.60;1664.00
54796;DHT22;40693;43.884;20.340;2022-09-16T16:05:25;742.60;1664.00
54796;DHT22;40693;43.884;20.340;2022-09-16T16:08:02;742.50;1689.60
54796;DHT22;40693;43.884;20.340;2022-09-16T16:10:30;742.50;1689.60
54796;DHT22;40693;43.884;20.340;2022-09-16T16:12:58;742.50;1689.60
54796;DHT22;40693;43.884;20.340;2022-09-16T16:15:27;742.40;1689.60
54796;DHT22;40693;43.884;20.340;2022-09-16T16:17:56;742.50;1689.60
54796;DHT22;40693;43.884;20.340;2022-09-16T16:20:23;717.70;1689.60
54796;DHT22;40693;43.884;20.340;2022-09-16T16:22:49;717.60;1689.60
54796;DHT22;40693;43.884;20.340;2022-09-16T16:25:15;717.60;1689.60
54796;DHT22;40693;43.884;20.340;2022-09-16T16:27:41;717.50;1689.60
54796;DHT22;40693;43.884;20.340;2022-09-16T16:30:08;717.40;1715.20
54796;DHT22;40693;43.884;20.340;2022-09-16T16:32:34;717.30;1715.20
54796;DHT22;40693;43.884;20.340;2022-09-16T16:35:00;717.30;1740.80
54796;DHT22;40693;43.884;20.340;2022-09-16T16:37:26;717.30;1740.80
54796;DHT22;40693;43.884;20.340;2022-09-16T16:39:52;717.30;1740.80
54796;DHT22;40693;43.884;20.340;2022-09-16T16:42:19;717.20;1766.40
54796;DHT22;40693;43.884;20.340;2022-09-16T16:44:45;717.20;1766.40
54796;DHT22;40693;43.884;20.340;2022-09-16T16:47:11;717.10;1766.40
54796;DHT22;40693;43.884;20.340;2022-09-16T16:49:37;717.10;1766.40
54796;DHT22;40693;43.884;20.340;2022-09-16T16:52:05;717.00;1792.00
54796;DHT22;40693;43.884;20.340;2022-09-16T16:54:31;717.00;1792.00
54796;DHT22;40693;43.884;20.340;2022-09-16T16:56:58;716.80;1817.60
54796;DHT22;40693;43.884;20.340;2022-09-16T16:59:24;716.80;1817.60
54796;DHT22;40693;43.884;20.340;2022-09-16T17:01:52;692.10;1792.00
54796;DHT22;40693;43.884;20.340;2022-09-16T17:04:18;692.10;1817.60
54796;DHT22;40693;43.884;20.340;2022-09-16T17:06:45;692.10;1817.60
54796;DHT22;40693;43.884;20.340;2022-09-16T17:09:11;692.00;1817.60
54796;DHT22;40693;43.884;20.340;2022-09-16T17:11:52;691.90;1843.20
54796;DHT22;40693;43.884;20.340;2022-09-16T17:14:20;691.90;1843.20
54796;DHT22;40693;43.884;20.340;2022-09-16T17:16:46;691.90;1843.20
54796;DHT22;40693;43.884;20.340;2022-09-16T17:19:13;691.90;1843.20
54796;DHT22;40693;43.884;20.340;2022-09-16T17:21:39;691.90;1843.20
54796;DHT22;40693;43.884;20.340;2022-09-16T17:24:06;691.90;1843.20
54796;DHT22;40693;43.884;20.340;2022-09-16T17:26:32;691.90;1868.80
54796;DHT22;40693;43.884;20.340;2022-09-16T17:28:58;691.90;1868.80
54796;DHT22;40693;43.884;20.340;2022-09-16T17:31:28;691.90;1868.80
54796;DHT22;40693;43.884;20.340;2022-09-16T17:33:56;691.70;1868.80
54796;DHT22;40693;43.884;20.340;2022-09-16T17:36:23;691.70;1868.80
54796;DHT22;40693;43.884;20.340;2022-09-16T17:39:02;691.60;1894.40
54796;DHT22;40693;43.884;20.340;2022-09-16T17:41:28;691.70;1894.40
54796;DHT22;40693;43.884;20.340;2022-09-16T17:43:57;691.70;1894.40
54796;DHT22;40693;43.884;20.340;2022-09-16T17:46:25;691.60;1894.40
54796;DHT22;40693;43.884;20.340;2022-09-16T17:49:07;691.60;1920.00
54796;DHT22;40693;43.884;20.340;2022-09-16T17:51:34;691.50;1920.00
54796;DHT22;40693;43.884;20.340;2022-09-16T17:54:00;691.40;1920.00
54796;DHT22;40693;43.884;20.340;2022-09-16T17:56:27;691.40;1945.60
54796;DHT22;40693;43.884;20.340;2022-09-16T17:58:54;691.30;1945.60
54796;DHT22;40693;43.884;20.340;2022-09-16T18:01:22;691.30;1945.60
54796;DHT22;40693;43.884;20.340;2022-09-16T18:03:50;666.50;2022.40
54796;DHT22;40693;43.884;20.340;2022-09-16T18:06:25;666.40;2099.20